Time;durP1;ratioP1;P1;durP2;ratioP2;P2;SDS_P1;SDS_P2;PMS_P1;PMS_P2;Temp;Humidity;BMP_temperature;BMP_pressure;BME280_temperature;BME280_humidity;BME280_pressure;Samples;Min_cycle;Max_cycle;Signal;HPM_P1;HPM_P2
2022/09/13 00:00:05;;;;;;;26.10;20.60;;;;;;;17.68;74.47;98961.62;1733800;83;21203;-78
2022/09/13 00:03:11;;;;;;;28.45;20.88;;;;;;;17.78;74.61;98956.27;1733291;83;21560;-78
2022/09/13 00:06:17;;;;;;;33.25;20.50;;;;;;;17.71;75.01;98957.81;1733820;83;21232;-78
2022/09/13 00:09:10;;;;;;;34.78;24.95;;;;;;;17.65;75.71;98953.31;1733736;83;21201;-78
2022/09/13 00:12:16;;;;;;;43.92;28.77;;;;;;;17.69;75.65;98954.48;1733766;83;21239;-78
2022/09/13 00:15:22;;;;;;;51.65;30.80;;;;;;;17.67;76.00;98952.50;1733806;83;21763;-78
2022/09/13 00:18:28;;;;;;;50.45;32.67;;;;;;;17.57;76.81;98949.59;1733905;83;21185;-78
2022/09/13 00:21:34;;;;;;;71.02;40.20;;;;;;;17.60;76.89;98956.84;1733747;83;21232;-78
2022/09/13 00:24:40;;;;;;;72.00;41.25;;;;;;;17.58;77.17;98952.09;1732515;83;21173;-79
2022/09/13 00:27:46;;;;;;;95.77;48.52;;;;;;;17.69;77.31;98952.23;1733730;83;21221;-79
2022/09/13 00:30:52;;;;;;;102.25;52.73;;;;;;;17.63;77.65;98948.56;1733923;82;21733;-79
2022/09/13 00:33:57;;;;;;;97.67;48.15;;;;;;;17.69;77.79;98949.47;1733135;83;21232;-79
2022/09/13 00:37:04;;;;;;;91.95;50.80;;;;;;;17.77;77.68;98950.45;1734513;83;21492;-79
2022/09/13 00:40:09;;;;;;;94.95;50.63;;;;;;;17.69;78.37;98950.33;1733881;83;21200;-79
2022/09/13 00:43:21;;;;;;;99.37;47.58;;;;;;;17.82;78.25;98949.97;1733770;83;21858;-79
2022/09/13 00:46:49;;;;;;;98.50;51.55;;;;;;;17.83;78.49;98954.95;1724771;83;21669;-79
2022/09/13 00:49:55;;;;;;;108.80;60.67;;;;;;;17.85;79.15;98948.63;1724302;83;21233;-78
2022/09/13 00:53:15;;;;;;;108.17;57.73;;;;;;;18.04;78.91;98951.91;1705481;83;21185;-79
2022/09/13 00:56:26;;;;;;;110.65;58.55;;;;;;;18.05;79.13;98943.34;1722105;83;21248;-78
2022/09/13 00:59:44;;;;;;;94.17;53.38;;;;;;;18.05;79.45;98941.95;1732941;83;21225;-78
2022/09/13 01:03:07;;;;;;;91.40;52.75;;;;;;;18.22;79.18;98942.45;1732785;83;21831;-78
2022/09/13 01:06:19;;;;;;;92.78;51.70;;;;;;;18.33;78.96;98942.84;1733885;83;21267;-79
2022/09/13 01:09:24;;;;;;;88.42;49.55;;;;;;;18.31;78.99;98950.58;1733969;83;21752;-79
2022/09/13 01:13:09;;;;;;;82.45;44.95;;;;;;;18.31;79.20;98948.64;1733995;83;21211;-79
2022/09/13 01:16:13;;;;;;;84.90;45.48;;;;;;;18.25;79.48;98947.44;1732557;82;21740;-78
2022/09/13 01:19:20;;;;;;;78.92;45.90;;;;;;;18.26;79.54;98944.98;1733943;83;21173;-78
2022/09/13 01:22:59;;;;;;;76.25;46.35;;;;;;;18.21;79.68;98946.28;1733986;83;21241;-78
2022/09/13 01:26:32;;;;;;;78.87;45.67;;;;;;;18.43;78.78;98940.17;1734101;83;21244;-79
2022/09/13 01:30:19;;;;;;;75.03;43.85;;;;;;;18.39;78.58;98944.55;1723457;83;21204;-78
2022/09/13 01:33:46;;;;;;;78.65;44.20;;;;;;;18.54;78.17;98944.73;1732790;83;21201;-78
2022/09/13 01:37:14;;;;;;;73.97;40.85;;;;;;;18.41;78.31;98939.61;1734091;82;21236;-78
2022/09/13 01:40:31;;;;;;;61.25;33.98;;;;;;;18.66;77.63;98943.17;1717205;83;21244;-78
2022/09/13 01:43:52;;;;;;;61.08;37.25;;;;;;;18.31;78.68;98939.50;1735011;83;21771;-78
2022/09/13 01:47:10;;;;;;;70.30;46.45;;;;;;;18.29;79.08;98948.59;1728715;83;21209;-78
2022/09/13 01:50:46;;;;;;;62.03;39.98;;;;;;;18.33;78.77;98951.14;1722070;83;21229;-78
2022/09/13 01:54:25;;;;;;;69.25;46.20;;;;;;;18.46;78.45;98945.75;1729248;83;21224;-78
2022/09/13 01:57:43;;;;;;;63.90;44.13;;;;;;;18.43;78.29;98941.55;1722964;82;21201;-78
2022/09/13 02:01:25;;;;;;;68.37;45.58;;;;;;;18.46;77.76;98938.28;1727402;83;21340;-79
2022/09/13 02:04:35;;;;;;;67.22;45.12;;;;;;;18.28;78.32;98935.86;1728264;83;21173;-79
2022/09/13 02:07:48;;;;;;;61.77;43.00;;;;;;;18.34;78.16;98940.34;1728662;83;21197;-79
2022/09/13 02:11:06;;;;;;;63.68;39.90;;;;;;;18.35;77.42;98942.88;1728413;83;21197;-79
2022/09/13 02:14:23;;;;;;;59.00;42.38;;;;;;;18.38;77.14;98934.59;1727020;83;22523;-79
2022/09/13 02:17:31;;;;;;;59.03;41.98;;;;;;;18.36;77.09;98943.71;1727192;83;21209;-79
2022/09/13 02:20:42;;;;;;;57.93;41.45;;;;;;;18.34;77.03;98943.95;1728680;83;21795;-79
2022/09/13 02:23:51;;;;;;;58.85;37.58;;;;;;;18.23;77.41;98941.34;1728291;83;21244;-79
2022/09/13 02:26:58;;;;;;;61.40;39.23;;;;;;;18.32;77.10;98943.39;1728629;83;21190;-79
2022/09/13 02:30:01;;;;;;;50.43;34.43;;;;;;;18.22;77.50;98947.98;1728052;83;21225;-79
2022/09/13 02:33:14;;;;;;;60.35;42.65;;;;;;;18.20;77.54;98947.38;1728452;83;21240;-79
2022/09/13 02:36:05;;;;;;;69.27;43.87;;;;;;;18.21;77.29;98949.05;1727377;83;21284;-79
2022/09/13 02:39:05;;;;;;;52.50;36.40;;;;;;;18.22;77.30;98949.36;1728495;83;21200;-79
2022/09/13 02:42:23;;;;;;;72.53;44.80;;;;;;;18.22;77.37;98945.21;1729291;83;21240;-79
2022/09/13 02:45:30;;;;;;;50.75;33.83;;;;;;;18.14;77.55;98946.49;1727126;83;21339;-79
2022/09/13 02:48:49;;;;;;;64.90;38.50;;;;;;;18.20;77.47;98942.69;1681909;84;21208;-79
2022/09/13 02:52:08;;;;;;;72.97;43.10;;;;;;;18.29;77.31;98940.30;1694049;84;21236;-79
2022/09/13 02:55:32;;;;;;;66.67;40.48;;;;;;;18.23;77.54;98943.56;1702151;84;21360;-79
2022/09/13 02:58:42;;;;;;;69.50;42.15;;;;;;;18.32;77.17;98937.02;1702420;84;21275;-79
2022/09/13 03:01:50;;;;;;;64.15;37.85;;;;;;;18.39;76.88;98939.84;1702304;84;21275;-79
2022/09/13 03:04:57;;;;;;;77.55;42.85;;;;;;;18.35;77.09;98942.05;1702303;84;21216;-79
2022/09/13 03:08:04;;;;;;;75.10;47.23;;;;;;;18.32;77.27;98932.87;1701142;84;21205;-78
2022/09/13 03:11:43;;;;;;;83.85;47.62;;;;;;;18.31;77.17;98929.27;1681454;84;21193;-79
2022/09/13 03:15:30;;;;;;;89.30;50.50;;;;;;;18.25;77.57;98930.84;1701220;84;21192;-79
2022/09/13 03:19:00;;;;;;;65.62;39.33;;;;;;;18.33;77.33;98929.83;1702442;84;21241;-79
2022/09/13 03:22:13;;;;;;;62.17;38.70;;;;;;;18.30;77.66;98926.73;1702413;84;22561;-79
2022/09/13 03:25:39;;;;;;;50.65;34.70;;;;;;;18.31;77.55;98927.05;1702093;84;21209;-79
2022/09/13 03:29:11;;;;;;;53.73;33.40;;;;;;;18.22;77.83;98925.84;1650642;84;21240;-79
2022/09/13 03:32:28;;;;;;;58.48;31.90;;;;;;;18.27;77.70;98918.97;1701255;84;21263;-79
2022/09/13 03:35:41;;;;;;;36.35;25.72;;;;;;;18.28;77.53;98925.63;1702067;84;21244;-78
2022/09/13 03:39:23;;;;;;;37.90;24.15;;;;;;;18.33;77.45;98920.14;1701031;84;21205;-78
2022/09/13 03:42:38;;;;;;;40.85;23.77;;;;;;;18.37;77.10;98912.16;1702305;84;21176;-79
2022/09/13 03:45:50;;;;;;;42.23;22.50;;;;;;;18.40;77.07;98910.27;1701406;84;21881;-79
2022/09/13 03:48:55;;;;;;;;;;;;;;;18.30;77.35;98911.52;1724995;82;21229;-77
2022/09/13 03:52:01;;;;;;;42.80;23.92;;;;;;;18.30;77.43;98911.52;1728555;83;20667;-78
2022/09/13 03:55:07;;;;;;;28.83;19.27;;;;;;;18.33;77.36;98909.06;1728491;83;21177;-78
2022/09/13 03:58:13;;;;;;;41.13;24.27;;;;;;;18.44;76.98;98910.55;1728504;83;21200;-79
2022/09/13 04:01:18;;;;;;;49.23;27.50;;;;;;;18.50;76.83;98910.91;1728181;83;21224;-79
2022/09/13 04:04:23;;;;;;;62.62;32.48;;;;;;;18.57;76.69;98917.05;1728537;83;21185;-79
2022/09/13 04:07:30;;;;;;;58.50;30.90;;;;;;;18.57;76.56;98915.67;1727502;83;21201;-79
2022/09/13 04:10:36;;;;;;;58.70;31.52;;;;;;;18.58;76.49;98922.35;1728682;83;21760;-79
2022/09/13 04:13:43;;;;;;;57.90;30.17;;;;;;;18.42;76.97;98921.06;1728644;83;21193;-79
2022/09/13 04:16:50;;;;;;;59.25;32.95;;;;;;;18.38;77.17;98921.58;1728077;83;21229;-79
2022/09/13 04:19:55;;;;;;;62.40;31.93;;;;;;;18.47;77.10;98921.95;1728508;83;21201;-78
2022/09/13 04:23:02;;;;;;;57.80;30.85;;;;;;;18.58;76.34;98922.88;1728612;83;21792;-78
2022/09/13 04:26:12;;;;;;;45.43;25.80;;;;;;;18.51;76.41;98922.27;1728369;83;21883;-78
2022/09/13 04:29:18;;;;;;;46.18;26.80;;;;;;;18.49;76.44;98920.29;1727236;83;21241;-78
2022/09/13 04:32:23;;;;;;;44.15;26.95;;;;;;;18.54;76.12;98919.81;1727955;83;21236;-78
2022/09/13 04:35:29;;;;;;;38.88;23.52;;;;;;;18.61;75.92;98925.96;1728567;83;21193;-78
2022/09/13 04:38:36;;;;;;;31.85;20.35;;;;;;;18.80;75.40;98920.07;1718080;81;21236;-78
2022/09/13 04:41:43;;;;;;;42.17;24.98;;;;;;;18.88;74.77;98923.20;1711360;82;21183;-79
2022/09/13 04:44:49;;;;;;;42.48;25.23;;;;;;;18.90;74.23;98921.54;1741335;82;21825;-78
2022/09/13 04:48:02;;;;;;;40.48;22.77;;;;;;;18.82;74.40;98922.88;1751448;81;21164;-78
2022/09/13 04:51:13;;;;;;;44.63;26.90;;;;;;;18.87;74.16;98926.24;1751798;81;21240;-79
2022/09/13 04:54:20;;;;;;;48.08;27.77;;;;;;;18.81;74.18;98918.41;1756926;80;21160;-79
2022/09/13 04:57:21;;;;;;;53.28;29.75;;;;;;;18.76;74.49;98918.92;1750296;81;21186;-79
2022/09/13 05:00:15;;;;;;;46.95;27.58;;;;;;;18.63;75.35;98909.94;1742303;82;22380;-79
2022/09/13 05:03:20;;;;;;;45.88;25.30;;;;;;;18.64;75.57;98910.22;1748075;80;21759;-78
2022/09/13 05:06:28;;;;;;;43.98;24.47;;;;;;;18.80;75.14;98914.53;1740213;80;21194;-78
2022/09/13 05:09:34;;;;;;;41.05;25.32;;;;;;;18.76;75.12;98910.62;1749608;81;21185;-78
2022/09/13 05:12:41;;;;;;;36.85;23.83;;;;;;;18.81;74.76;98912.04;1740567;81;22341;-78
2022/09/13 05:15:47;;;;;;;31.93;20.72;;;;;;;18.78;74.61;98912.59;1741057;81;21223;-78
2022/09/13 05:18:56;;;;;;;31.40;21.12;;;;;;;18.78;74.62;98910.66;1739173;81;21217;-78
2022/09/13 05:22:01;;;;;;;32.65;22.42;;;;;;;18.79;74.04;98912.88;1744258;80;21236;-78
2022/09/13 05:25:10;;;;;;;34.35;22.15;;;;;;;18.84;73.79;98917.06;1741332;80;22195;-79
2022/09/13 05:28:17;;;;;;;34.38;22.37;;;;;;;18.96;73.62;98920.50;1751460;81;21243;-78
2022/09/13 05:31:29;;;;;;;29.70;20.45;;;;;;;18.86;74.01;98921.78;1713275;82;21232;-79
2022/09/13 05:34:35;;;;;;;31.77;21.02;;;;;;;18.99;72.53;98922.72;1709993;83;21151;-79
2022/09/13 05:37:41;;;;;;;29.02;18.87;;;;;;;18.93;72.20;98925.18;1710461;83;21243;-79
2022/09/13 05:40:46;;;;;;;29.63;20.15;;;;;;;18.90;71.85;98924.31;1724156;82;21198;-79
2022/09/13 05:43:53;;;;;;;32.73;21.17;;;;;;;19.00;71.56;98927.71;1717192;82;21552;-79
2022/09/13 05:47:00;;;;;;;25.40;17.07;;;;;;;19.16;71.07;98923.98;1733144;81;21735;-79
2022/09/13 05:50:05;;;;;;;28.75;18.95;;;;;;;19.15;70.88;98928.69;1737004;81;21200;-79
2022/09/13 05:53:12;;;;;;;29.02;19.92;;;;;;;19.23;70.31;98937.59;1720517;83;21195;-78
2022/09/13 05:56:21;;;;;;;27.60;18.65;;;;;;;19.21;70.25;98939.81;1719359;83;21204;-79
2022/09/13 05:59:26;;;;;;;28.00;20.30;;;;;;;19.20;70.35;98938.98;1717553;81;21264;-78
2022/09/13 06:02:31;;;;;;;29.72;20.40;;;;;;;19.28;70.34;98938.45;1716822;81;21497;-79
2022/09/13 06:05:37;;;;;;;29.25;20.60;;;;;;;19.49;69.87;98942.22;1721780;83;21176;-79
2022/09/13 06:08:43;;;;;;;27.13;18.92;;;;;;;19.57;69.62;98947.27;1719006;81;21223;-79
2022/09/13 06:11:49;;;;;;;27.77;17.27;;;;;;;19.73;69.52;98953.77;1719607;81;21238;-79
2022/09/13 06:14:56;;;;;;;23.35;18.27;;;;;;;19.81;69.06;98949.66;1691962;81;21857;-79
2022/09/13 06:18:04;;;;;;;23.47;16.90;;;;;;;19.89;68.78;98954.11;1722702;82;21306;-78
2022/09/13 06:21:18;;;;;;;23.70;16.45;;;;;;;19.95;68.75;98953.61;1720520;81;21866;-78
2022/09/13 06:24:25;;;;;;;23.02;16.70;;;;;;;20.02;68.66;98962.50;1721029;83;21192;-79
2022/09/13 06:27:31;;;;;;;16.42;13.68;;;;;;;20.14;68.21;98966.45;1722946;81;21498;-79
2022/09/13 06:30:36;;;;;;;21.27;15.55;;;;;;;20.26;67.38;98975.92;1730223;81;22819;-79
2022/09/13 06:33:43;;;;;;;17.95;14.58;;;;;;;20.11;67.07;98971.16;1721526;82;21243;-78
2022/09/13 06:36:49;;;;;;;19.40;15.18;;;;;;;20.09;67.34;98970.05;1725918;81;21172;-78
2022/09/13 06:40:01;;;;;;;19.60;14.80;;;;;;;20.13;66.90;98971.14;1724653;81;21171;-80
2022/09/13 06:43:06;;;;;;;20.72;15.03;;;;;;;20.35;66.45;98968.19;1720792;81;21831;-80
2022/09/13 06:46:18;;;;;;;23.15;16.07;;;;;;;20.48;66.07;98977.98;1725030;81;21252;-80
2022/09/13 06:49:25;;;;;;;18.82;15.60;;;;;;;20.43;65.89;98974.60;1721534;81;21204;-80
2022/09/13 06:52:31;;;;;;;21.33;14.55;;;;;;;20.34;65.51;98977.63;1740136;80;21188;-80
2022/09/13 06:55:36;;;;;;;17.35;13.62;;;;;;;20.34;64.81;98972.08;1741819;80;21912;-80
2022/09/13 06:58:42;;;;;;;22.77;14.47;;;;;;;20.22;65.32;98987.28;1741724;80;21216;-80
2022/09/13 07:01:50;;;;;;;20.30;14.03;;;;;;;20.25;65.19;98989.53;1744367;80;22215;-81
2022/09/13 07:04:55;;;;;;;18.80;13.98;;;;;;;20.33;64.72;98990.41;1747404;80;21239;-80
2022/09/13 07:08:00;;;;;;;17.05;13.95;;;;;;;20.17;65.33;98993.66;1745651;80;21318;-80
2022/09/13 07:11:08;;;;;;;17.25;12.82;;;;;;;20.08;65.26;98991.94;1738864;82;21195;-78
2022/09/13 07:14:14;;;;;;;15.25;12.23;;;;;;;20.01;65.57;98995.53;1741786;82;21709;-79
2022/09/13 07:17:19;;;;;;;18.80;14.30;;;;;;;20.05;64.92;98996.67;1752722;80;21206;-79
2022/09/13 07:20:25;;;;;;;17.98;13.50;;;;;;;19.90;65.46;98993.27;1751876;80;21223;-78
2022/09/13 07:23:30;;;;;;;14.93;13.28;;;;;;;20.04;64.89;98990.84;1741671;81;21517;-79
2022/09/13 07:26:35;;;;;;;15.80;11.57;;;;;;;20.20;64.17;98986.18;1740816;82;21838;-79
2022/09/13 07:29:42;;;;;;;14.95;11.90;;;;;;;20.26;64.06;98978.14;1741114;82;21456;-79
2022/09/13 07:32:48;;;;;;;15.25;11.18;;;;;;;20.22;64.52;98977.02;1758552;80;21219;-79
2022/09/13 07:36:05;;;;;;;13.05;11.63;;;;;;;20.29;64.61;98979.55;1744547;80;21203;-79
2022/09/13 07:39:11;;;;;;;13.00;11.12;;;;;;;20.65;64.02;98982.76;1758816;80;21154;-80
2022/09/13 07:42:20;;;;;;;11.83;10.48;;;;;;;20.90;64.11;98976.40;1743878;80;21794;-78
2022/09/13 07:45:27;;;;;;;15.35;9.58;;;;;;;21.07;63.95;98978.06;1744973;81;21189;-79
2022/09/13 07:48:40;;;;;;;9.75;8.55;;;;;;;21.16;62.69;98971.67;1743776;80;21203;-78
2022/09/13 07:51:50;;;;;;;9.70;8.15;;;;;;;21.26;61.94;98980.56;1748404;80;21204;-79
2022/09/13 07:54:56;;;;;;;11.57;8.78;;;;;;;21.29;61.14;98975.02;1731437;81;21267;-78
2022/09/13 07:58:03;;;;;;;13.55;8.28;;;;;;;21.18;61.13;98981.14;1730970;81;21184;-78
2022/09/13 08:01:29;;;;;;;12.68;7.55;;;;;;;21.28;61.31;98971.41;1690497;81;21377;-78
2022/09/13 08:04:37;;;;;;;11.95;7.75;;;;;;;21.40;60.35;98977.53;1692262;82;21741;-79
2022/09/13 08:07:47;;;;;;;9.78;8.28;;;;;;;21.41;60.28;98979.78;1722586;82;21300;-79
2022/09/13 08:10:52;;;;;;;8.65;7.75;;;;;;;21.43;59.86;98976.15;1718880;81;21189;-79
2022/09/13 08:13:57;;;;;;;11.97;8.05;;;;;;;21.53;59.43;98969.18;1726287;82;21173;-79
2022/09/13 08:17:03;;;;;;;8.65;7.67;;;;;;;21.38;60.13;98976.16;1722042;82;21145;-79
2022/09/13 08:20:08;;;;;;;8.93;7.97;;;;;;;21.63;59.79;98974.72;1719686;82;21291;-79
2022/09/13 08:23:14;;;;;;;9.78;6.90;;;;;;;21.88;60.14;98973.02;1721003;82;21240;-79
2022/09/13 08:26:20;;;;;;;13.45;7.55;;;;;;;22.20;60.70;98964.28;1718751;81;21220;-78
2022/09/13 08:29:25;;;;;;;9.00;7.65;;;;;;;22.41;58.06;98970.04;1721507;81;21736;-78
2022/09/13 08:32:30;;;;;;;9.05;8.15;;;;;;;22.30;57.28;98971.22;1722257;82;21192;-79
2022/09/13 08:35:37;;;;;;;9.58;7.35;;;;;;;22.22;56.64;98970.97;1719799;82;21163;-79
2022/09/13 08:38:43;;;;;;;8.45;7.55;;;;;;;21.97;56.04;98969.90;1727170;81;21495;-78
2022/09/13 08:41:58;;;;;;;10.32;7.97;;;;;;;21.93;55.10;98963.26;1670709;84;21235;-79
2022/09/13 08:45:05;;;;;;;7.97;6.60;;;;;;;21.97;55.24;98962.11;1698085;83;21193;-79
2022/09/13 08:48:14;;;;;;;9.60;6.55;;;;;;;22.11;54.12;98964.06;1684360;83;21204;-79
2022/09/13 08:51:36;;;;;;;10.50;6.60;;;;;;;21.99;54.13;98963.51;1684095;83;21215;-79
2022/09/13 08:54:42;;;;;;;6.75;5.85;;;;;;;22.08;53.54;98969.33;1713679;81;21759;-79
2022/09/13 08:58:12;;;;;;;7.87;6.33;;;;;;;22.15;53.52;98972.09;1741609;80;21203;-79
2022/09/13 09:01:37;;;;;;;7.40;6.05;;;;;;;22.07;52.77;98962.92;1739866;81;21180;-79
2022/09/13 09:04:54;;;;;;;8.88;6.80;;;;;;;22.02;52.12;98967.13;1746306;80;21888;-79
2022/09/13 09:08:15;;;;;;;7.62;6.60;;;;;;;21.94;52.82;98966.31;1709707;82;22068;-80
2022/09/13 09:11:59;;;;;;;10.05;6.35;;;;;;;21.99;53.27;98968.24;1712773;82;21225;-80
2022/09/13 09:15:11;;;;;;;8.83;5.42;;;;;;;22.17;52.83;98974.61;1710905;82;21206;-78
2022/09/13 09:18:29;;;;;;;7.92;5.33;;;;;;;22.39;51.99;98968.08;1744325;80;21259;-79
2022/09/13 09:21:34;;;;;;;8.25;6.08;;;;;;;22.57;51.34;98974.13;1743814;80;21192;-78
2022/09/13 09:24:42;;;;;;;10.48;6.58;;;;;;;22.57;50.68;98969.39;1708239;83;21208;-78
2022/09/13 09:27:49;;;;;;;6.42;4.65;;;;;;;22.61;50.51;98976.05;1707242;82;22215;-79
2022/09/13 09:31:17;;;;;;;5.12;4.60;;;;;;;22.70;49.67;98974.33;1711170;83;21192;-80
2022/09/13 09:34:50;;;;;;;5.97;4.97;;;;;;;22.91;48.94;98977.86;1712116;82;21240;-80
2022/09/13 09:38:32;;;;;;;10.25;5.90;;;;;;;23.15;48.69;98984.93;1709039;82;22478;-80
2022/09/13 09:41:41;;;;;;;11.45;5.58;;;;;;;23.57;47.22;98985.38;1699534;81;21279;-79
2022/09/13 09:44:48;;;;;;;7.85;7.03;;;;;;;23.56;47.58;98978.97;1723329;81;21288;-79
2022/09/13 09:48:00;;;;;;;9.90;7.10;;;;;;;23.56;47.58;98978.97;1728885;81;22337;-78
2022/09/13 09:51:07;;;;;;;10.10;7.22;;;;;;;23.67;47.55;98988.95;1752532;80;21198;-79
2022/09/13 09:54:12;;;;;;;10.85;8.25;;;;;;;23.50;48.05;98984.91;1745613;80;21200;-79
2022/09/13 09:57:19;;;;;;;8.73;7.67;;;;;;;23.27;48.40;98988.72;1709235;82;21224;-79
2022/09/13 10:00:29;;;;;;;8.73;7.83;;;;;;;23.06;48.32;98986.67;1715514;82;21180;-80
2022/09/13 10:03:40;;;;;;;8.28;6.40;;;;;;;22.76;48.23;98981.26;1707314;82;21184;-79
2022/09/13 10:06:50;;;;;;;7.85;7.05;;;;;;;22.50;48.31;98981.98;1707538;82;21207;-80
2022/09/13 10:10:11;;;;;;;10.53;6.78;;;;;;;22.36;49.31;98985.39;1664161;85;21233;-78
2022/09/13 10:13:26;;;;;;;7.70;5.75;;;;;;;22.26;50.13;98991.57;1681138;84;21252;-79
2022/09/13 10:16:36;;;;;;;7.12;5.85;;;;;;;22.08;50.22;98985.47;1709178;82;21214;-78
2022/09/13 10:19:45;;;;;;;8.80;6.25;;;;;;;22.18;50.16;98984.63;1712390;83;21370;-78
2022/09/13 10:22:51;;;;;;;10.43;6.35;;;;;;;22.40;50.50;98985.09;1696050;82;21210;-79
2022/09/13 10:26:06;;;;;;;6.78;5.67;;;;;;;22.67;49.36;98988.83;1706225;83;21543;-79
2022/09/13 10:29:14;;;;;;;9.95;6.15;;;;;;;22.95;48.61;98986.45;1710982;83;21239;-78
2022/09/13 10:32:19;;;;;;;7.53;6.42;;;;;;;23.26;47.73;98987.63;1703390;83;21259;-79
2022/09/13 10:35:25;;;;;;;6.53;5.90;;;;;;;23.51;47.04;98986.56;1702903;82;21332;-79
2022/09/13 10:38:47;;;;;;;7.58;6.17;;;;;;;23.39;46.27;98986.40;1743953;81;21192;-79
2022/09/13 10:42:04;;;;;;;7.78;5.95;;;;;;;23.55;46.00;98982.89;1739231;82;21204;-78
2022/09/13 10:45:13;;;;;;;7.20;6.12;;;;;;;23.44;45.46;98979.94;1729191;80;21196;-79
2022/09/13 10:48:23;;;;;;;8.08;6.40;;;;;;;23.35;45.58;98974.16;1739313;80;21160;-79
2022/09/13 10:51:40;;;;;;;8.00;5.58;;;;;;;23.51;45.43;98969.25;1738354;81;21318;-79
2022/09/13 10:54:46;;;;;;;6.28;4.90;;;;;;;23.52;45.25;98967.30;1742578;80;21239;-79
2022/09/13 10:58:01;;;;;;;7.45;4.22;;;;;;;23.48;45.05;98971.26;1718681;82;22241;-79
2022/09/13 11:01:32;;;;;;;4.53;3.30;;;;;;;23.44;44.75;98972.41;1723260;82;21209;-79
2022/09/13 11:04:57;;;;;;;3.00;2.77;;;;;;;23.31;43.95;98963.31;1724026;82;21260;-79
2022/09/13 11:08:33;;;;;;;4.53;3.60;;;;;;;23.59;42.69;98956.06;1690674;82;21178;-79
2022/09/13 11:12:02;;;;;;;3.67;3.00;;;;;;;23.62;42.87;98951.30;1731011;82;21202;-80
2022/09/13 11:15:51;;;;;;;11.43;4.03;;;;;;;23.42;42.12;98962.64;1729105;82;21826;-82
2022/09/13 11:19:23;;;;;;;4.00;3.42;;;;;;;23.63;41.92;98965.52;1719697;82;21611;-79
2022/09/13 11:22:57;;;;;;;5.75;3.22;;;;;;;23.57;42.27;98961.12;1696308;83;22366;-78
2022/09/13 11:26:14;;;;;;;3.92;3.52;;;;;;;23.65;41.77;98955.48;1689161;84;21275;-79
2022/09/13 11:29:50;;;;;;;4.92;2.95;;;;;;;23.70;41.53;98954.02;1660904;85;21216;-79
2022/09/13 11:33:18;;;;;;;;;;;;;;;23.72;41.60;98957.37;1692772;83;21207;-79
2022/09/13 11:36:53;;;;;;;5.03;2.92;;;;;;;23.59;41.31;98954.67;1695721;83;20237;-80
2022/09/13 11:40:27;;;;;;;6.12;3.15;;;;;;;23.66;41.68;98959.36;1595443;88;21238;-79
2022/09/13 11:43:53;;;;;;;3.65;3.27;;;;;;;23.55;41.91;98962.53;1668593;85;21239;-79
2022/09/13 11:47:40;;;;;;;3.90;3.30;;;;;;;23.62;42.01;98957.42;1699901;83;21153;-80
2022/09/13 11:50:57;;;;;;;5.50;3.80;;;;;;;23.76;42.12;98958.98;1649316;84;21228;-79
2022/09/13 11:54:26;;;;;;;4.87;3.37;;;;;;;23.82;41.20;98962.84;1663771;83;21196;-78
2022/09/13 11:57:37;;;;;;;5.17;4.03;;;;;;;23.93;40.83;98968.56;1677748;81;22401;-79
2022/09/13 12:00:48;;;;;;;;;;;;;;;23.58;41.29;98970.33;1727351;81;21919;-79
2022/09/13 12:04:10;;;;;;;;;;;;;;;23.31;41.87;98963.87;1729206;82;20240;-79
2022/09/13 12:07:22;;;;;;;7.05;4.78;;;;;;;23.05;42.75;98975.78;1694934;83;20961;-79
2022/09/13 12:10:42;;;;;;;7.65;4.75;;;;;;;22.93;43.04;98974.77;1681141;84;21199;-79
2022/09/13 12:13:57;;;;;;;5.72;4.50;;;;;;;22.73;43.20;98975.72;1680076;84;21231;-79
2022/09/13 12:16:54;;;;;;;5.85;4.20;;;;;;;22.41;43.76;98966.42;1683635;84;22209;-79
2022/09/13 12:19:46;;;;;;;6.45;4.47;;;;;;;22.30;43.92;98971.75;1689244;84;21180;-79
2022/09/13 12:22:41;;;;;;;4.70;4.08;;;;;;;22.12;44.19;98971.29;1675685;84;21810;-78
2022/09/13 12:26:24;;;;;;;5.25;4.58;;;;;;;22.05;44.70;98968.48;1686451;84;21734;-78
2022/09/13 12:29:53;;;;;;;6.08;5.00;;;;;;;22.01;45.27;98974.34;1698219;83;21184;-78
2022/09/13 12:32:52;;;;;;;7.83;5.47;;;;;;;21.77;46.01;98979.70;1713098;83;22204;-78
2022/09/13 12:36:12;;;;;;;6.65;5.40;;;;;;;21.77;46.01;98979.70;1733008;82;21132;-78
2022/09/13 12:39:52;;;;;;;6.35;5.05;;;;;;;21.71;46.50;98982.23;1722288;82;22157;-78
2022/09/13 12:43:25;;;;;;;6.62;4.58;;;;;;;21.69;46.68;98988.09;1723082;82;21176;-78
2022/09/13 12:46:50;;;;;;;8.18;5.08;;;;;;;21.68;47.01;98989.18;1734071;82;21768;-78
2022/09/13 12:50:21;;;;;;;6.33;4.97;;;;;;;21.50;47.21;98994.80;1722682;82;21228;-78
2022/09/13 12:53:51;;;;;;;8.68;4.28;;;;;;;21.26;47.84;98999.20;1728829;82;21180;-78
2022/09/13 12:57:38;;;;;;;6.33;4.92;;;;;;;21.50;47.70;99007.31;1733874;81;21342;-79
2022/09/13 13:01:13;;;;;;;7.10;5.35;;;;;;;21.44;47.91;99005.06;1730817;82;22520;-79
2022/09/13 13:04:25;;;;;;;8.98;5.45;;;;;;;21.59;47.29;99007.00;1716792;82;21200;-79
2022/09/13 13:07:31;;;;;;;5.87;4.22;;;;;;;21.47;47.27;99007.86;1722997;82;21192;-79
2022/09/13 13:10:40;;;;;;;5.08;4.37;;;;;;;21.37;47.38;99012.88;1713197;82;21192;-78
2022/09/13 13:13:52;;;;;;;5.50;4.80;;;;;;;21.42;46.84;99011.48;1728883;82;21579;-78
2022/09/13 13:16:57;;;;;;;5.78;4.58;;;;;;;21.31;46.88;99012.58;1732445;82;21212;-78
2022/09/13 13:20:02;;;;;;;5.22;4.05;;;;;;;21.29;47.23;99016.17;1733511;82;21189;-78
2022/09/13 13:23:30;;;;;;;6.28;4.40;;;;;;;21.20;47.73;99010.88;1733113;82;21894;-78
2022/09/13 13:27:03;;;;;;;5.97;4.70;;;;;;;21.30;47.60;99010.05;1733913;82;21196;-78
2022/09/13 13:30:48;;;;;;;5.55;4.45;;;;;;;21.21;47.84;99004.77;1697338;84;21300;-79
2022/09/13 13:33:59;;;;;;;9.10;5.30;;;;;;;21.10;48.43;99006.71;1665421;85;21204;-79
2022/09/13 13:37:17;;;;;;;8.07;4.67;;;;;;;21.11;48.31;99003.64;1680459;84;21232;-79
2022/09/13 13:40:31;;;;;;;4.95;4.25;;;;;;;21.10;48.16;99008.94;1709852;83;21563;-79
2022/09/13 13:43:40;;;;;;;4.78;3.27;;;;;;;21.12;48.12;99008.09;1696854;83;21260;-80
2022/09/13 13:46:47;;;;;;;3.90;3.08;;;;;;;21.10;47.54;99008.94;1653838;85;21304;-79
2022/09/13 13:50:08;;;;;;;4.28;2.92;;;;;;;21.14;47.09;99001.71;1647886;85;21184;-79
2022/09/13 13:53:32;;;;;;;7.62;3.42;;;;;;;21.09;47.21;99003.10;1684615;84;21259;-78
2022/09/13 13:56:54;;;;;;;2.85;2.50;;;;;;;20.90;47.40;99007.53;1688414;84;21844;-78
2022/09/13 14:00:12;;;;;;;3.87;2.58;;;;;;;20.78;47.73;99002.77;1723139;82;21196;-78
2022/09/13 14:03:51;;;;;;;4.65;3.20;;;;;;;20.96;47.57;99010.58;1732547;82;21248;-78
2022/09/13 14:07:46;;;;;;;5.50;3.65;;;;;;;21.00;47.22;99008.92;1734167;82;21459;-78
2022/09/13 14:11:06;;;;;;;3.20;2.90;;;;;;;20.94;46.96;99010.04;1663476;85;21225;-78
2022/09/13 14:14:39;;;;;;;3.77;2.90;;;;;;;20.95;47.10;99010.31;1662315;86;21237;-78
2022/09/13 14:18:01;;;;;;;3.72;3.12;;;;;;;20.98;47.30;99013.91;1677292;85;21296;-78
2022/09/13 14:21:09;;;;;;;3.90;3.42;;;;;;;20.89;47.39;99017.81;1719168;82;21902;-78
2022/09/13 14:24:27;;;;;;;4.55;3.12;;;;;;;20.74;47.81;99015.54;1721170;83;21233;-79
2022/09/13 14:27:42;;;;;;;5.92;2.80;;;;;;;20.75;47.95;99019.45;1721245;83;21240;-78
2022/09/13 14:30:48;;;;;;;5.67;3.25;;;;;;;20.79;47.94;99018.33;1721487;83;21228;-78
2022/09/13 14:33:55;;;;;;;5.72;3.02;;;;;;;20.95;47.45;99021.43;1688064;83;21836;-78
2022/09/13 14:37:02;;;;;;;3.08;2.70;;;;;;;20.88;47.64;99026.41;1717482;83;21219;-78
2022/09/13 14:40:26;;;;;;;3.47;2.50;;;;;;;20.88;47.21;99026.41;1746229;82;21257;-78
2022/09/13 14:43:50;;;;;;;5.70;2.35;;;;;;;20.81;47.40;99035.58;1747664;82;21845;-80
2022/09/13 14:47:05;;;;;;;3.00;2.42;;;;;;;20.83;47.07;99027.78;1748082;82;21268;-80
2022/09/13 14:50:30;;;;;;;5.87;3.37;;;;;;;20.86;47.29;99028.08;1747924;82;21402;-79
2022/09/13 14:53:46;;;;;;;5.72;3.83;;;;;;;20.76;48.30;99034.17;1728004;82;21854;-83
2022/09/13 14:57:00;;;;;;;10.38;4.37;;;;;;;20.64;48.66;99028.84;1716147;83;21227;-80
2022/09/13 15:00:10;;;;;;;5.05;4.50;;;;;;;20.61;48.84;99030.25;1690370;83;21251;-79